Aérodrome :
LOGIN :

S'inscrire | Disclaimer

   EN    FR    IT 

 










Légende :    VFR   VFR Marginal   IFR   IFR Intensif   IFR Très Intensif
Visi : 
Plafond : 
>= 8 km
>= 3000ft
5 à 8 km
1000 à 3000 ft
1500m à 5 km
500 à 1000 ft
800 à 1500m
200 à 500 ft
< 800m
< 200 ft
Symboles :   Orages  Brouillard  Fortes neiges  Fortes précipitations  Vent > 20 kt
SIGMETs :   Divers  Orages  Givrage  Turbulence  Onde Orograph.  Cendres Volcan.







- Altitude de l'aérodrome : 17 ft
- Code IATA : MPL
- Voir les cartes d'approche


LFMT - Montpellier Méditerranée

DERNIER METAR :
  • 201400Z AUTO 20008KT CAVOK 23/08 Q1018 NOSIG

METARs EXPIRÉS :
  • 201330Z AUTO 19008KT CAVOK 23/04 Q1018 NOSIG
  • 201300Z AUTO 21011KT CAVOK 23/05 Q1018 NOSIG
  • 201230Z AUTO VRB06KT CAVOK 23/03 Q1019 NOSIG
  • 201200Z AUTO 36007KT 270V060 CAVOK 22/02 Q1019 BECMG 20012KT
  • 201130Z AUTO 01008KT 320V060 CAVOK 22/03 Q1019 BECMG 20012KT

TAF TAF LFMT
Valide du 20 à 09h jusqu'au 21 à 09h UTC


200800Z 2009/2109 31006KT CAVOK
BECMG 2013/2015 20012KT
BECMG 2020/2023 02005KT
ATIS : +33 4 67 13 11 70
Pas de NOTAMs connus pour ce terrain.



MET'MAP, la Météo Aéronautique d'un coup d'oeil ! - Copyright ORBIFLY Décembre 2007 - Disclaimer

ORBIFLY MET'MAP TEAM :

Programmation & Développement : Alexandra Zaïnal
Conception & Développement : Baudouin d'Aumeries
Co-Programmation & Développement : Marc-Olivier Méhu
Soutien technique & logistique : Manuel Goepfert

Contact : metmap@orbifly.com




SOURCES & CREDITS :

   NOAA